createdAt,value
2023-05-20T00:00:36.472Z,9.50
2023-05-20T00:03:18.026Z,11.10
2023-05-20T00:05:47.160Z,9.70
2023-05-20T00:08:16.059Z,8.40
2023-05-20T00:10:44.314Z,10.50
2023-05-20T00:13:12.385Z,9.40
2023-05-20T00:15:40.414Z,7.70
2023-05-20T00:18:08.536Z,9.20
2023-05-20T00:20:36.808Z,7.70
2023-05-20T00:23:04.958Z,8.30
2023-05-20T00:25:33.379Z,9.50
2023-05-20T00:28:01.948Z,7.20
2023-05-20T00:30:30.114Z,13.20
2023-05-20T00:32:58.353Z,7.70
2023-05-20T00:35:26.487Z,8.10
2023-05-20T00:37:54.627Z,8.30
2023-05-20T00:40:23.719Z,6.90
2023-05-20T00:42:52.104Z,8.70
2023-05-20T00:45:20.684Z,9.30
2023-05-20T00:47:49.183Z,10.30
2023-05-20T00:50:17.825Z,9.70
2023-05-20T00:52:48.428Z,10.20
2023-05-20T00:55:16.852Z,12.00
2023-05-20T00:57:45.066Z,9.60
2023-05-20T01:00:14.243Z,13.50
2023-05-20T01:02:42.542Z,10.70
2023-05-20T01:05:10.963Z,15.00
2023-05-20T01:07:39.318Z,11.30
2023-05-20T01:10:08.428Z,12.90
2023-05-20T01:12:41.992Z,12.80
2023-05-20T01:15:15.804Z,12.70
2023-05-20T01:17:51.723Z,14.00
2023-05-20T01:20:21.477Z,10.60
2023-05-20T01:22:50.572Z,12.60
2023-05-20T01:25:18.685Z,11.40
2023-05-20T01:27:49.359Z,12.40
2023-05-20T01:30:18.001Z,10.40
2023-05-20T01:32:54.360Z,10.60
2023-05-20T01:35:23.272Z,9.10
2023-05-20T01:37:53.862Z,8.90
2023-05-20T01:40:23.482Z,8.90
2023-05-20T01:42:55.273Z,10.90
2023-05-20T01:45:24.645Z,8.80
2023-05-20T01:47:53.159Z,9.50
2023-05-20T01:50:21.456Z,9.60
2023-05-20T01:52:49.647Z,8.40
2023-05-20T01:55:17.953Z,10.30
2023-05-20T01:57:46.441Z,8.80
2023-05-20T02:00:14.954Z,8.90
2023-05-20T02:02:42.973Z,11.20
2023-05-20T02:05:13.941Z,9.70
2023-05-20T02:07:44.369Z,10.40
2023-05-20T02:10:12.413Z,12.50
2023-05-20T02:12:40.911Z,9.80
2023-05-20T02:15:09.594Z,8.60
2023-05-20T02:17:37.816Z,13.90
2023-05-20T02:20:07.944Z,7.60
2023-05-20T02:22:36.923Z,8.50
2023-05-20T02:25:05.646Z,12.50
2023-05-20T02:27:33.831Z,9.80
2023-05-20T02:30:02.449Z,10.60
2023-05-20T02:32:30.534Z,11.30
2023-05-20T02:34:58.667Z,10.00
2023-05-20T02:37:27.354Z,9.80
2023-05-20T02:39:56.500Z,9.50
2023-05-20T02:42:24.517Z,9.00
2023-05-20T02:44:56.678Z,9.30
2023-05-20T02:47:26.026Z,8.00
2023-05-20T02:49:54.270Z,13.00
2023-05-20T02:52:22.436Z,7.60
2023-05-20T02:54:53.077Z,10.70
2023-05-20T02:57:21.335Z,11.10
2023-05-20T02:59:49.211Z,10.70
2023-05-20T03:02:17.490Z,9.20
2023-05-20T03:04:47.003Z,13.80
2023-05-20T03:07:17.729Z,11.60
2023-05-20T03:09:46.083Z,9.60
2023-05-20T03:12:14.469Z,9.00
2023-05-20T03:14:42.838Z,8.60
2023-05-20T03:17:11.809Z,9.50
2023-05-20T03:19:40.006Z,7.40
2023-05-20T03:22:07.923Z,8.90
2023-05-20T03:24:36.006Z,9.60
2023-05-20T03:27:04.534Z,15.90
2023-05-20T03:29:34.845Z,13.10
2023-05-20T03:32:04.143Z,13.90
2023-05-20T03:34:32.221Z,13.90
2023-05-20T03:37:00.461Z,13.70
2023-05-20T03:39:28.642Z,14.20
2023-05-20T03:41:56.846Z,13.70
2023-05-20T03:44:25.017Z,15.60
2023-05-20T03:46:53.139Z,14.70
2023-05-20T03:49:21.772Z,11.00
2023-05-20T03:51:49.835Z,10.70
2023-05-20T03:54:18.215Z,12.80
2023-05-20T03:56:49.695Z,15.70
2023-05-20T03:59:19.377Z,12.30
2023-05-20T04:01:47.343Z,14.70
2023-05-20T04:04:15.665Z,12.00
2023-05-20T04:06:44.301Z,10.70
2023-05-20T04:09:12.155Z,11.20
2023-05-20T04:11:40.248Z,9.80
2023-05-20T04:14:10.605Z,9.30
2023-05-20T04:16:39.522Z,13.10
2023-05-20T04:19:09.199Z,12.80
2023-05-20T04:21:37.849Z,9.60
2023-05-20T04:24:06.956Z,12.80
2023-05-20T04:26:35.539Z,14.10
2023-05-20T04:29:04.120Z,10.40
2023-05-20T04:31:32.977Z,10.90
2023-05-20T04:34:02.838Z,9.70
2023-05-20T04:36:31.401Z,11.10
2023-05-20T04:38:59.911Z,13.10
2023-05-20T04:41:27.944Z,13.80
2023-05-20T04:44:00.940Z,12.50
2023-05-20T04:46:30.162Z,14.30
2023-05-20T04:48:59.940Z,13.00
2023-05-20T04:51:29.749Z,12.40
2023-05-20T04:53:59.247Z,15.60
2023-05-20T04:56:29.881Z,12.00
2023-05-20T04:58:58.976Z,14.30
2023-05-20T05:01:27.122Z,13.70
2023-05-20T05:03:55.521Z,13.00
2023-05-20T05:06:24.637Z,12.40
2023-05-20T05:08:52.590Z,13.80
2023-05-20T05:11:21.548Z,15.40
2023-05-20T05:13:50.021Z,13.20
2023-05-20T05:16:19.224Z,15.20
2023-05-20T05:18:47.672Z,13.50
2023-05-20T05:21:15.947Z,13.90
2023-05-20T05:23:44.289Z,14.60
2023-05-20T05:26:12.465Z,14.70
2023-05-20T05:28:43.549Z,12.50
2023-05-20T05:31:12.304Z,13.80
2023-05-20T05:33:40.591Z,12.80
2023-05-20T05:36:08.849Z,12.10
2023-05-20T05:38:36.864Z,14.50
2023-05-20T05:41:05.287Z,10.00
2023-05-20T05:43:33.570Z,10.30
2023-05-20T05:46:03.247Z,13.10
2023-05-20T05:48:31.264Z,11.90
2023-05-20T05:50:59.253Z,11.80
2023-05-20T05:53:27.837Z,11.80
2023-05-20T05:55:56.181Z,12.40
2023-05-20T05:58:24.278Z,12.90
2023-05-20T06:00:53.330Z,13.60
2023-05-20T06:03:21.887Z,13.30
2023-05-20T06:05:50.163Z,10.90
2023-05-20T06:08:18.391Z,12.20
2023-05-20T06:10:50.542Z,13.90
2023-05-20T06:13:19.220Z,13.40
2023-05-20T06:15:50.059Z,12.90
2023-05-20T06:18:18.250Z,12.70
2023-05-20T06:20:46.512Z,13.50
2023-05-20T06:23:14.599Z,12.30
2023-05-20T06:25:51.345Z,13.00
2023-05-20T06:28:21.163Z,13.10
2023-05-20T06:30:49.368Z,13.30
2023-05-20T06:33:19.928Z,12.10
2023-05-20T06:35:48.163Z,12.00
2023-05-20T06:38:16.985Z,11.90
2023-05-20T06:40:45.437Z,11.10
2023-05-20T06:43:13.398Z,17.60
2023-05-20T06:46:01.551Z,11.70
2023-05-20T06:48:35.213Z,11.30
2023-05-20T06:51:04.027Z,14.30
2023-05-20T06:53:32.381Z,10.80
2023-05-20T06:56:01.381Z,9.80
2023-05-20T06:58:29.546Z,10.00
2023-05-20T07:00:58.370Z,11.50
2023-05-20T07:03:27.288Z,10.20
2023-05-20T07:05:56.035Z,10.60
2023-05-20T07:08:25.341Z,12.40
2023-05-20T07:10:57.114Z,10.20
2023-05-20T07:13:26.502Z,11.80
2023-05-20T07:15:55.003Z,9.50
2023-05-20T07:18:23.428Z,12.70
2023-05-20T07:20:54.477Z,10.10
2023-05-20T07:23:35.780Z,13.20
2023-05-20T07:26:03.973Z,9.60
2023-05-20T07:28:31.856Z,11.00
2023-05-20T07:31:00.925Z,9.80
2023-05-20T07:33:30.923Z,9.20
2023-05-20T07:35:59.742Z,8.00
2023-05-20T07:38:28.031Z,9.00
2023-05-20T07:41:02.040Z,7.80
2023-05-20T07:43:30.581Z,9.10
2023-05-20T07:45:59.847Z,8.60
2023-05-20T07:48:28.139Z,8.70
2023-05-20T07:50:59.381Z,12.90
2023-05-20T07:53:28.581Z,7.80
2023-05-20T07:55:57.662Z,8.30
2023-05-20T07:58:29.065Z,9.50
2023-05-20T08:00:57.484Z,8.20
2023-05-20T08:03:27.262Z,10.00
2023-05-20T08:06:03.552Z,10.40
2023-05-20T08:08:31.876Z,9.50
2023-05-20T08:11:04.356Z,9.60
2023-05-20T08:13:33.219Z,7.90
2023-05-20T08:16:04.303Z,8.90
2023-05-20T08:18:36.836Z,6.60
2023-05-20T08:21:08.044Z,6.90
2023-05-20T08:23:40.197Z,10.20
2023-05-20T08:26:09.072Z,12.30
2023-05-20T08:28:39.168Z,10.70
2023-05-20T08:31:07.241Z,8.90
2023-05-20T08:33:35.640Z,9.70
2023-05-20T08:36:04.320Z,8.30
2023-05-20T08:38:32.424Z,9.80
2023-05-20T08:41:02.426Z,10.90
2023-05-20T08:43:32.859Z,9.50
2023-05-20T08:46:05.449Z,8.80
2023-05-20T08:48:35.995Z,9.10
2023-05-20T08:51:05.177Z,9.40
2023-05-20T08:53:33.346Z,9.90
2023-05-20T08:56:03.837Z,8.00
2023-05-20T08:58:35.810Z,7.40
2023-05-20T09:01:03.873Z,9.10
2023-05-20T09:03:32.454Z,8.00
2023-05-20T09:06:08.223Z,11.50
2023-05-20T09:08:37.411Z,7.80
2023-05-20T09:11:05.865Z,7.20
2023-05-20T09:13:34.285Z,8.90
2023-05-20T09:16:03.713Z,9.30
2023-05-20T09:18:32.410Z,7.40
2023-05-20T09:21:07.202Z,8.20
2023-05-20T09:23:38.643Z,7.40
2023-05-20T09:26:07.204Z,7.40
2023-05-20T09:28:38.478Z,8.70
2023-05-20T09:33:37.072Z,8.00
2023-05-20T09:36:08.188Z,6.60
2023-05-20T09:38:40.675Z,8.00
2023-05-20T09:41:15.510Z,7.60
2023-05-20T09:43:45.721Z,7.90
2023-05-20T09:46:14.376Z,8.10
2023-05-20T09:48:43.888Z,8.30
2023-05-20T09:51:13.878Z,8.00
2023-05-20T09:53:43.267Z,8.60
2023-05-20T09:56:11.481Z,7.30
2023-05-20T09:58:42.541Z,9.50
2023-05-20T10:01:10.824Z,8.60
2023-05-20T10:03:40.106Z,6.70
2023-05-20T10:06:27.647Z,6.50
2023-05-20T10:09:05.802Z,8.80
2023-05-20T10:11:38.861Z,6.00
2023-05-20T10:14:27.101Z,6.50
2023-05-20T10:17:02.065Z,6.40
2023-05-20T10:19:33.277Z,7.60
2023-05-20T10:24:38.716Z,6.90
2023-05-20T10:27:14.290Z,7.00
2023-05-20T10:32:27.730Z,6.20
2023-05-20T10:35:05.366Z,9.70
2023-05-20T10:37:44.253Z,10.10
2023-05-20T10:40:14.350Z,8.10
2023-05-20T10:42:43.367Z,8.90
2023-05-20T10:45:12.394Z,9.00
2023-05-20T10:47:59.400Z,6.70
2023-05-20T10:50:29.353Z,7.40
2023-05-20T10:53:04.873Z,7.40
2023-05-20T10:55:38.078Z,7.60
2023-05-20T10:58:07.144Z,9.60
2023-05-20T11:00:39.389Z,6.00
2023-05-20T11:03:08.197Z,10.70
2023-05-20T11:05:36.892Z,7.40
2023-05-20T11:08:16.958Z,8.60
2023-05-20T11:10:52.591Z,7.00
2023-05-20T11:15:50.290Z,5.80
2023-05-20T11:18:18.971Z,9.10
2023-05-20T11:20:47.639Z,7.60
2023-05-20T11:23:16.592Z,6.20
2023-05-20T11:25:44.846Z,6.80
2023-05-20T11:28:14.643Z,6.30
2023-05-20T11:30:43.495Z,6.60
2023-05-20T11:33:16.945Z,5.60
2023-05-20T11:35:49.996Z,8.50
2023-05-20T11:38:19.690Z,5.40
2023-05-20T11:40:58.568Z,7.40
2023-05-20T11:43:26.965Z,7.70
2023-05-20T11:45:59.403Z,5.80
2023-05-20T11:48:28.170Z,5.80
2023-05-20T11:50:57.764Z,5.60
2023-05-20T11:53:27.161Z,7.70
2023-05-20T11:55:57.240Z,5.80
2023-05-20T11:58:27.419Z,6.40
2023-05-20T12:01:02.306Z,6.60
2023-05-20T12:03:42.256Z,6.30
2023-05-20T12:06:13.639Z,8.10
2023-05-20T12:11:09.870Z,8.60
2023-05-20T12:13:38.372Z,8.10
2023-05-20T12:16:06.976Z,6.20
2023-05-20T12:18:35.213Z,6.20
2023-05-20T12:21:03.256Z,9.30
2023-05-20T12:23:34.373Z,7.20
2023-05-20T12:28:32.415Z,6.20
2023-05-20T12:31:01.212Z,5.80
2023-05-20T12:33:29.361Z,7.70
2023-05-20T12:35:57.956Z,6.50
2023-05-20T12:38:26.009Z,4.20
2023-05-20T12:40:54.191Z,8.00
2023-05-20T12:43:22.408Z,5.70
2023-05-20T12:45:52.328Z,3.90
2023-05-20T12:48:20.681Z,6.90
2023-05-20T12:50:49.036Z,7.80
2023-05-20T12:53:17.210Z,7.80
2023-05-20T12:55:45.496Z,6.00
2023-05-20T12:58:13.618Z,10.20
2023-05-20T13:00:41.945Z,5.20
2023-05-20T13:03:10.087Z,5.20
2023-05-20T13:05:38.156Z,6.50
2023-05-20T13:08:06.434Z,6.10
2023-05-20T13:10:34.621Z,4.80
2023-05-20T13:13:03.130Z,3.40
2023-05-20T13:15:33.507Z,5.50
2023-05-20T13:18:03.612Z,5.00
2023-05-20T13:20:32.280Z,4.10
2023-05-20T13:23:00.279Z,5.40
2023-05-20T13:25:28.492Z,4.70
2023-05-20T13:27:56.461Z,4.70
2023-05-20T13:30:24.462Z,5.60
2023-05-20T13:32:52.952Z,5.30
2023-05-20T13:35:21.521Z,7.20
2023-05-20T13:37:49.564Z,6.30
2023-05-20T13:40:17.720Z,4.40
2023-05-20T13:42:45.970Z,6.10
2023-05-20T13:45:14.162Z,7.40
2023-05-20T13:47:42.265Z,6.70
2023-05-20T13:50:11.360Z,6.10
2023-05-20T13:52:39.523Z,4.70
2023-05-20T13:55:08.129Z,4.40
2023-05-20T13:57:36.484Z,6.80
2023-05-20T14:00:05.079Z,4.80
2023-05-20T14:02:37.229Z,4.90
2023-05-20T14:05:07.428Z,4.90
2023-05-20T14:07:35.813Z,7.80
2023-05-20T14:10:04.502Z,4.40
2023-05-20T14:12:32.678Z,5.60
2023-05-20T14:15:00.776Z,7.70
2023-05-20T14:17:28.871Z,6.50
2023-05-20T14:19:56.923Z,4.90
2023-05-20T14:22:25.157Z,6.10
2023-05-20T14:24:53.182Z,7.00
2023-05-20T14:27:21.321Z,6.10
2023-05-20T14:29:49.315Z,6.30
2023-05-20T14:32:17.451Z,10.10
2023-05-20T14:34:45.820Z,6.40
2023-05-20T14:37:15.456Z,6.60
2023-05-20T14:39:43.492Z,8.10
2023-05-20T14:42:12.235Z,6.10
2023-05-20T14:44:40.371Z,7.70
2023-05-20T14:47:08.418Z,9.10
2023-05-20T14:49:39.471Z,6.70
2023-05-20T14:52:07.953Z,7.00
2023-05-20T14:54:36.352Z,7.10
2023-05-20T14:57:06.764Z,7.20
2023-05-20T14:59:34.953Z,8.50
2023-05-20T15:02:03.357Z,7.70
2023-05-20T15:04:31.577Z,6.10
2023-05-20T15:06:59.592Z,7.60
2023-05-20T15:09:27.914Z,8.00
2023-05-20T15:11:56.101Z,6.10
2023-05-20T15:14:24.071Z,10.80
2023-05-20T15:16:52.247Z,5.40
2023-05-20T15:19:20.481Z,4.90
2023-05-20T15:21:49.771Z,6.00
2023-05-20T15:24:19.012Z,5.60
2023-05-20T15:26:47.093Z,6.80
2023-05-20T15:29:15.102Z,4.70
2023-05-20T15:31:43.120Z,4.60
2023-05-20T15:34:11.252Z,7.60
2023-05-20T15:36:40.305Z,5.00
2023-05-20T15:39:09.070Z,6.50
2023-05-20T15:41:39.875Z,6.20
2023-05-20T15:44:09.040Z,5.60
2023-05-20T15:46:37.266Z,5.70
2023-05-20T15:49:05.890Z,7.00
2023-05-20T15:51:33.824Z,5.20
2023-05-20T15:54:01.942Z,5.90
2023-05-20T15:56:31.280Z,6.90
2023-05-20T15:58:59.483Z,5.50
2023-05-20T16:01:28.701Z,7.90
2023-05-20T16:03:58.670Z,7.80
2023-05-20T16:06:26.980Z,6.40
2023-05-20T16:08:54.954Z,6.90
2023-05-20T16:11:23.944Z,8.60
2023-05-20T16:13:52.229Z,8.90
2023-05-20T16:16:20.753Z,10.40
2023-05-20T16:18:49.100Z,8.40
2023-05-20T16:21:17.140Z,16.90
2023-05-20T16:23:45.603Z,19.40
2023-05-20T16:26:14.608Z,17.00
2023-05-20T16:28:42.774Z,19.30
2023-05-20T16:31:10.880Z,26.50
2023-05-20T16:33:39.009Z,19.50
2023-05-20T16:36:07.179Z,14.00
2023-05-20T16:38:35.469Z,10.90
2023-05-20T16:41:03.640Z,9.10
2023-05-20T16:43:31.727Z,6.80
2023-05-20T16:45:59.751Z,7.70
2023-05-20T16:48:28.181Z,7.70
2023-05-20T16:50:56.356Z,8.90
2023-05-20T16:53:24.613Z,7.80
2023-05-20T16:55:52.781Z,8.00
2023-05-20T16:58:20.850Z,8.60
2023-05-20T17:00:49.348Z,9.90
2023-05-20T17:03:18.317Z,13.70
2023-05-20T17:05:46.529Z,11.10
2023-05-20T17:08:14.512Z,8.90
2023-05-20T17:10:42.778Z,8.50
2023-05-20T17:13:11.018Z,11.10
2023-05-20T17:15:39.292Z,9.70
2023-05-20T17:18:07.589Z,8.90
2023-05-20T17:20:36.319Z,8.40
2023-05-20T17:23:04.575Z,8.60
2023-05-20T17:25:32.903Z,8.10
2023-05-20T17:28:01.309Z,8.40
2023-05-20T17:30:29.286Z,7.20
2023-05-20T17:32:57.968Z,8.10
2023-05-20T17:35:26.346Z,5.80
2023-05-20T17:37:55.199Z,6.20
2023-05-20T17:40:23.776Z,6.60
2023-05-20T17:42:52.167Z,10.80
2023-05-20T17:45:20.087Z,9.40
2023-05-20T17:47:48.536Z,11.40
2023-05-20T17:50:17.115Z,16.00
2023-05-20T17:52:45.156Z,12.40
2023-05-20T17:55:13.239Z,12.30
2023-05-20T17:57:41.225Z,10.40
2023-05-20T18:00:09.701Z,9.40
2023-05-20T18:02:38.468Z,12.10
2023-05-20T18:05:07.365Z,10.70
2023-05-20T18:07:36.344Z,8.10
2023-05-20T18:10:06.195Z,7.50
2023-05-20T18:12:34.171Z,7.40
2023-05-20T18:15:02.526Z,9.20
2023-05-20T18:17:30.723Z,8.60
2023-05-20T18:19:58.865Z,10.70
2023-05-20T18:22:27.252Z,13.20
2023-05-20T18:24:55.636Z,6.30
2023-05-20T18:27:23.623Z,9.00
2023-05-20T18:29:51.457Z,9.70
2023-05-20T18:32:20.438Z,8.80
2023-05-20T18:34:48.484Z,6.30
2023-05-20T18:37:16.810Z,8.20
2023-05-20T18:39:44.886Z,11.00
2023-05-20T18:42:12.907Z,9.10
2023-05-20T18:44:41.416Z,7.60
2023-05-20T18:47:10.617Z,8.40
2023-05-20T18:49:38.772Z,9.90
2023-05-20T18:52:07.289Z,8.00
2023-05-20T18:54:35.966Z,9.60
2023-05-20T18:57:05.224Z,8.00
2023-05-20T18:59:33.423Z,8.40
2023-05-20T19:02:01.756Z,7.50
2023-05-20T19:04:30.154Z,9.60
2023-05-20T19:06:59.362Z,6.80
2023-05-20T19:09:27.460Z,6.50
2023-05-20T19:11:59.248Z,7.60
2023-05-20T19:16:55.496Z,5.80
2023-05-20T19:19:23.681Z,5.60
2023-05-20T19:21:52.349Z,6.20
2023-05-20T19:24:20.439Z,8.60
2023-05-20T19:26:48.421Z,5.90
2023-05-20T19:29:16.714Z,7.00
2023-05-20T19:31:45.975Z,7.40
2023-05-20T19:34:14.475Z,7.90
2023-05-20T19:36:42.983Z,5.20
2023-05-20T19:39:11.912Z,6.40
2023-05-20T19:41:40.016Z,8.50
2023-05-20T19:44:08.976Z,6.30
2023-05-20T19:46:37.393Z,7.40
2023-05-20T19:49:06.439Z,7.30
2023-05-20T19:51:34.777Z,5.20
2023-05-20T19:54:02.965Z,6.60
2023-05-20T19:56:31.227Z,7.30
2023-05-20T19:59:01.969Z,10.20
2023-05-20T20:01:30.687Z,6.40
2023-05-20T20:03:58.785Z,6.50
2023-05-20T20:06:27.350Z,8.70
2023-05-20T20:08:55.567Z,9.10
2023-05-20T20:11:23.947Z,9.50
2023-05-20T20:13:52.018Z,7.10
2023-05-20T20:16:20.321Z,7.60
2023-05-20T20:18:48.785Z,7.30
2023-05-20T20:21:16.942Z,7.10
2023-05-20T20:23:45.280Z,10.80
2023-05-20T20:26:14.009Z,5.10
2023-05-20T20:28:42.087Z,6.60
2023-05-20T20:31:10.206Z,6.10
2023-05-20T20:33:38.326Z,7.60
2023-05-20T20:36:09.003Z,6.70
2023-05-20T20:38:37.705Z,8.40
2023-05-20T20:41:05.945Z,9.90
2023-05-20T20:43:34.974Z,6.80
2023-05-20T20:46:03.728Z,10.80
2023-05-20T20:48:32.688Z,5.60
2023-05-20T20:51:02.318Z,5.90
2023-05-20T20:53:30.671Z,11.20
2023-05-20T20:55:58.727Z,10.80
2023-05-20T20:58:27.345Z,10.60
2023-05-20T21:00:55.355Z,6.70
2023-05-20T21:03:24.200Z,5.00
2023-05-20T21:05:52.211Z,14.60
2023-05-20T21:08:22.382Z,5.30
2023-05-20T21:10:50.425Z,8.10
2023-05-20T21:13:18.354Z,7.70
2023-05-20T21:15:46.635Z,7.40
2023-05-20T21:18:21.845Z,7.10
2023-05-20T21:20:51.444Z,6.30
2023-05-20T21:23:20.852Z,6.30
2023-05-20T21:25:49.405Z,6.30
2023-05-20T21:28:17.596Z,5.10
2023-05-20T21:30:45.522Z,7.10
2023-05-20T21:33:13.834Z,4.70
2023-05-20T21:35:41.901Z,6.30
2023-05-20T21:38:10.184Z,6.90
2023-05-20T21:40:38.351Z,8.80
2023-05-20T21:43:06.528Z,5.80
2023-05-20T21:45:34.727Z,7.60
2023-05-20T21:48:03.092Z,6.70
2023-05-20T21:50:30.995Z,7.50
2023-05-20T21:52:59.045Z,7.20
2023-05-20T21:55:26.946Z,6.70
2023-05-20T21:57:55.345Z,6.30
2023-05-20T22:00:23.425Z,7.80
2023-05-20T22:02:51.525Z,5.50
2023-05-20T22:05:20.919Z,5.60
2023-05-20T22:07:51.398Z,6.20
2023-05-20T22:10:20.945Z,6.50
2023-05-20T22:12:51.013Z,7.30
2023-05-20T22:15:19.399Z,5.60
2023-05-20T22:17:47.926Z,7.20
2023-05-20T22:20:15.935Z,10.40
2023-05-20T22:22:44.148Z,7.60
2023-05-20T22:25:12.823Z,7.10
2023-05-20T22:27:43.165Z,7.70
2023-05-20T22:30:12.328Z,12.20
2023-05-20T22:32:41.056Z,5.70
2023-05-20T22:35:09.987Z,10.30
2023-05-20T22:37:37.917Z,7.40
2023-05-20T22:40:07.407Z,6.90
2023-05-20T22:42:35.772Z,7.30
2023-05-20T22:45:04.566Z,9.60
2023-05-20T22:47:33.071Z,10.80
2023-05-20T22:50:02.738Z,7.60
2023-05-20T22:52:31.468Z,13.40
2023-05-20T22:55:00.034Z,9.50
2023-05-20T22:57:29.554Z,9.30
2023-05-20T22:59:57.596Z,4.70
2023-05-20T23:02:26.392Z,6.40
2023-05-20T23:04:54.666Z,4.40
2023-05-20T23:07:23.761Z,5.80
2023-05-20T23:09:51.672Z,6.40
2023-05-20T23:12:19.695Z,9.60
2023-05-20T23:14:47.781Z,6.60
2023-05-20T23:17:16.341Z,8.40
2023-05-20T23:19:44.531Z,8.70
2023-05-20T23:22:14.263Z,9.60
2023-05-20T23:24:42.297Z,7.70
2023-05-20T23:27:10.585Z,13.60
2023-05-20T23:29:38.750Z,9.30
2023-05-20T23:32:07.456Z,14.30
2023-05-20T23:34:36.118Z,13.70
2023-05-20T23:37:04.340Z,10.70
2023-05-20T23:39:32.469Z,10.30
2023-05-20T23:42:01.267Z,11.30
2023-05-20T23:44:29.216Z,7.50
2023-05-20T23:46:57.119Z,7.90
2023-05-20T23:49:27.346Z,8.50
2023-05-20T23:51:56.071Z,9.80
2023-05-20T23:54:24.178Z,7.50
2023-05-20T23:56:52.352Z,7.80
2023-05-20T23:59:20.733Z,12.80
